Time;durP1;ratioP1;P1;durP2;ratioP2;P2;SDS_P1;SDS_P2;PMS_P1;PMS_P2;Temp;Humidity;BMP_temperature;BMP_pressure;BME280_temperature;BME280_humidity;BME280_pressure;Samples;Min_cycle;Max_cycle;Signal;HPM_P1;HPM_P2
2021/12/14 00:02:26;;;;;;;;;;;24.30;95.60;;;;;;4956243;28;20070;-71
2021/12/14 00:04:55;;;;;;;8.75;2.75;;;24.20;95.40;;;;;;4956482;28;19910;-70
2021/12/14 00:07:24;;;;;;;12.25;2.55;;;24.00;95.20;;;;;;4956407;28;20078;-71
2021/12/14 00:10:00;;;;;;;14.52;2.75;;;24.10;95.60;;;;;;4956085;28;20027;-71
2021/12/14 00:12:39;;;;;;;11.45;2.80;;;24.20;95.20;;;;;;4955853;28;20380;-73
2021/12/14 00:15:15;;;;;;;9.38;3.38;;;24.30;95.40;;;;;;4956292;28;20055;-73
2021/12/14 00:17:51;;;;;;;25.80;3.63;;;24.30;95.70;;;;;;4958587;28;20098;-72
2021/12/14 00:20:35;;;;;;;13.93;3.40;;;24.40;95.70;;;;;;4963615;28;20134;-70
2021/12/14 00:25:41;;;;;;;17.25;3.45;;;24.30;96.50;;;;;;4954927;28;20031;-68
2021/12/14 00:28:13;;;;;;;11.77;3.88;;;24.50;96.40;;;;;;4954418;28;20100;-71
2021/12/14 00:30:43;;;;;;;12.05;3.15;;;24.60;96.10;;;;;;4954698;28;20047;-70
2021/12/14 00:33:14;;;;;;;15.02;3.63;;;24.80;96.10;;;;;;4953914;28;20039;-72
2021/12/14 00:35:43;;;;;;;17.80;3.00;;;24.80;96.10;;;;;;4955467;28;20047;-71
2021/12/14 00:38:14;;;;;;;14.48;2.38;;;24.80;96.90;;;;;;4955109;28;20086;-71
2021/12/14 00:40:49;;;;;;;15.40;3.60;;;24.60;96.60;;;;;;4955027;28;20035;-73
2021/12/14 00:43:16;;;;;;;13.18;2.97;;;24.40;97.60;;;;;;4954754;28;20059;-71
2021/12/14 00:45:44;;;;;;;11.73;3.25;;;24.30;97.60;;;;;;4954829;28;20026;-73
2021/12/14 00:48:13;;;;;;;12.32;3.58;;;24.30;97.80;;;;;;4954676;28;20471;-70
2021/12/14 00:50:44;;;;;;;16.58;3.28;;;24.40;97.60;;;;;;4954563;28;20055;-70
2021/12/14 00:53:11;;;;;;;15.88;3.25;;;24.50;97.70;;;;;;4955301;28;20037;-71
2021/12/14 00:55:43;;;;;;;10.50;2.50;;;24.80;97.60;;;;;;4954951;28;20031;-69
2021/12/14 00:58:11;;;;;;;14.20;2.55;;;25.00;97.00;;;;;;4969536;28;20034;-69
2021/12/14 01:00:48;;;;;;;11.02;3.28;;;25.20;96.60;;;;;;4974971;28;20027;-70
2021/12/14 01:03:16;;;;;;;17.13;3.78;;;25.30;96.70;;;;;;4975001;28;20102;-69
2021/12/14 01:05:48;;;;;;;9.10;2.58;;;25.40;96.20;;;;;;4974490;28;20055;-72
2021/12/14 01:08:21;;;;;;;;;;;25.30;96.00;;;;;;4975091;28;20029;-70
2021/12/14 01:11:05;;;;;;;15.35;2.72;;;25.40;96.00;;;;;;4974805;28;19906;-72
2021/12/14 01:13:40;;;;;;;10.93;2.88;;;25.60;95.90;;;;;;4974907;28;20125;-69
2021/12/14 01:16:19;;;;;;;12.57;3.08;;;25.80;95.30;;;;;;4974534;28;20021;-70
2021/12/14 01:19:01;;;;;;;12.52;2.67;;;26.10;95.00;;;;;;4974560;28;20046;-70
2021/12/14 01:24:35;;;;;;;14.95;2.25;;;26.10;94.30;;;;;;4974387;28;20069;-71
2021/12/14 01:27:13;;;;;;;17.50;2.30;;;25.90;94.10;;;;;;4974145;28;20090;-69
2021/12/14 01:29:43;;;;;;;12.55;2.25;;;25.90;94.20;;;;;;4974324;28;20098;-70
2021/12/14 01:32:12;;;;;;;30.33;4.60;;;26.00;94.70;;;;;;4973627;28;20035;-68
2021/12/14 01:34:39;;;;;;;9.23;1.73;;;26.10;94.30;;;;;;4968965;28;20047;-72
2021/12/14 01:37:14;;;;;;;10.25;2.03;;;26.30;93.70;;;;;;4957623;28;20419;-70
2021/12/14 01:40:02;;;;;;;8.52;2.50;;;26.40;93.60;;;;;;4953418;28;20030;-72
2021/12/14 01:42:34;;;;;;;11.77;2.47;;;26.40;93.60;;;;;;4955026;28;20364;-73
2021/12/14 01:45:09;;;;;;;8.18;1.92;;;26.50;93.40;;;;;;4954993;28;20571;-71
2021/12/14 01:47:46;;;;;;;9.18;1.83;;;26.70;93.80;;;;;;4954386;28;20357;-71
2021/12/14 01:50:20;;;;;;;9.77;2.05;;;27.00;92.90;;;;;;4954151;28;20111;-71
2021/12/14 01:52:47;;;;;;;11.77;2.63;;;27.20;92.70;;;;;;4953403;28;20523;-73
2021/12/14 01:55:19;;;;;;;8.15;2.50;;;27.20;92.40;;;;;;4952692;28;20082;-70
2021/12/14 01:57:47;;;;;;;7.25;2.10;;;27.30;91.70;;;;;;4952944;28;20043;-69
2021/12/14 02:00:33;;;;;;;8.55;2.03;;;27.40;92.10;;;;;;4953032;28;20031;-69
2021/12/14 02:03:04;;;;;;;8.05;1.55;;;27.20;91.40;;;;;;4951117;28;20020;-70
2021/12/14 02:05:34;;;;;;;6.60;1.73;;;27.20;91.60;;;;;;4953208;28;20519;-69
2021/12/14 02:08:04;;;;;;;12.20;2.92;;;27.30;91.30;;;;;;4953246;28;20066;-72
2021/12/14 02:10:36;;;;;;;6.15;2.28;;;27.50;91.10;;;;;;4954689;28;20498;-72
2021/12/14 02:13:06;;;;;;;9.30;2.00;;;27.70;90.80;;;;;;4954482;28;20126;-71
2021/12/14 02:15:41;;;;;;;12.73;4.30;;;27.80;90.50;;;;;;4954346;28;20019;-71
2021/12/14 02:18:17;;;;;;;6.90;1.40;;;27.80;90.80;;;;;;4954385;28;20087;-70
2021/12/14 02:21:06;;;;;;;7.60;1.58;;;27.80;90.70;;;;;;4953005;28;20049;-70
2021/12/14 02:23:37;;;;;;;10.25;1.60;;;27.80;90.70;;;;;;4954480;28;20107;-70
2021/12/14 02:26:08;;;;;;;7.55;1.65;;;28.10;90.20;;;;;;4954473;28;20495;-71
2021/12/14 02:28:35;;;;;;;5.38;1.40;;;28.30;89.40;;;;;;4954353;28;20120;-70
2021/12/14 02:31:07;;;;;;;11.50;2.13;;;28.40;90.50;;;;;;4953972;28;20074;-71
2021/12/14 02:33:35;;;;;;;;;;;28.50;89.00;;;;;;4953946;28;20484;-72
2021/12/14 02:36:07;;;;;;;6.35;1.50;;;28.60;86.70;;;;;;4953984;28;19910;-72
2021/12/14 02:38:39;;;;;;;11.45;1.55;;;28.60;86.10;;;;;;4953965;28;20078;-71
2021/12/14 02:41:06;;;;;;;;;;;28.60;85.50;;;;;;4954290;28;20023;-71
2021/12/14 02:43:40;;;;;;;7.18;1.52;;;28.60;85.40;;;;;;4953790;28;20513;-72
2021/12/14 02:46:10;;;;;;;5.22;1.10;;;28.40;86.00;;;;;;4953760;28;20035;-71
2021/12/14 02:48:40;;;;;;;20.80;3.95;;;28.40;86.50;;;;;;4953098;28;20103;-72
2021/12/14 02:51:18;;;;;;;9.00;1.52;;;28.40;86.50;;;;;;4953813;28;20360;-72
2021/12/14 02:53:49;;;;;;;6.13;1.25;;;28.60;87.00;;;;;;4953836;28;20054;-72
2021/12/14 02:56:19;;;;;;;5.72;1.20;;;28.80;84.90;;;;;;4953740;28;20055;-71
2021/12/14 02:58:48;;;;;;;5.95;1.30;;;29.00;83.40;;;;;;4953426;28;20030;-72
2021/12/14 03:01:17;;;;;;;6.53;1.40;;;29.30;84.20;;;;;;4954022;28;20031;-71
2021/12/14 03:03:45;;;;;;;5.63;1.38;;;29.70;82.40;;;;;;4953613;28;20031;-73
2021/12/14 03:06:19;;;;;;;5.70;1.30;;;29.60;82.10;;;;;;4953863;28;20028;-71
2021/12/14 03:08:57;;;;;;;6.47;1.52;;;29.70;81.20;;;;;;4954030;28;20062;-72
2021/12/14 03:11:26;;;;;;;7.40;1.30;;;30.00;80.80;;;;;;4953933;28;20102;-72
2021/12/14 03:13:54;;;;;;;6.82;1.40;;;30.30;80.00;;;;;;4953844;28;20122;-72
2021/12/14 03:16:34;;;;;;;7.78;1.60;;;30.60;77.90;;;;;;4954120;28;20504;-73
2021/12/14 03:19:06;;;;;;;6.10;1.38;;;30.70;76.00;;;;;;4953675;28;20061;-72
2021/12/14 03:21:41;;;;;;;9.05;1.40;;;29.90;78.00;;;;;;4953379;28;20030;-73
2021/12/14 03:24:14;;;;;;;5.10;1.58;;;30.10;78.00;;;;;;4953160;28;20031;-72
2021/12/14 03:26:48;;;;;;;5.85;1.33;;;30.50;76.90;;;;;;4953481;28;20019;-72
2021/12/14 03:29:25;;;;;;;7.43;1.80;;;30.50;77.50;;;;;;4953729;29;20083;-72
2021/12/14 03:31:56;;;;;;;7.15;1.70;;;30.80;76.50;;;;;;4953575;28;20034;-71
2021/12/14 03:34:36;;;;;;;6.35;1.40;;;30.70;75.60;;;;;;4952933;28;20027;-71
2021/12/14 03:37:30;;;;;;;6.13;1.40;;;31.30;74.00;;;;;;4952943;28;20030;-71
2021/12/14 03:40:02;;;;;;;11.07;2.65;;;31.00;74.30;;;;;;4952264;28;20050;-72
2021/12/14 03:42:36;;;;;;;5.13;1.23;;;31.50;73.00;;;;;;4952813;28;20031;-70
2021/12/14 03:45:11;;;;;;;6.88;1.30;;;31.60;71.10;;;;;;4952584;28;20391;-70
2021/12/14 03:47:47;;;;;;;8.65;1.80;;;31.70;72.10;;;;;;4953200;28;20026;-68
2021/12/14 03:50:20;;;;;;;5.47;1.90;;;31.40;72.10;;;;;;4950481;28;20030;-70
2021/12/14 03:52:47;;;;;;;7.07;1.73;;;31.70;71.30;;;;;;4965404;28;20502;-69
2021/12/14 03:55:19;;;;;;;5.55;1.58;;;32.10;70.80;;;;;;4967681;28;20023;-71
2021/12/14 03:57:47;;;;;;;6.28;1.80;;;31.90;70.60;;;;;;4966928;28;20030;-70
2021/12/14 04:00:30;;;;;;;12.35;1.85;;;31.60;70.80;;;;;;4966177;28;20029;-71
2021/12/14 04:03:01;;;;;;;8.38;1.17;;;32.00;71.00;;;;;;4967214;28;20587;-71
2021/12/14 04:05:29;;;;;;;6.15;1.42;;;32.30;68.10;;;;;;4967512;28;20089;-72
2021/12/14 04:07:57;;;;;;;8.52;1.83;;;32.00;68.40;;;;;;4965577;28;20027;-68
2021/12/14 04:10:29;;;;;;;4.85;1.35;;;32.20;68.90;;;;;;4967659;28;20027;-71
2021/12/14 04:12:59;;;;;;;5.18;1.45;;;32.60;68.80;;;;;;4968298;28;20035;-72
2021/12/14 04:15:28;;;;;;;10.57;1.90;;;32.70;68.00;;;;;;4968220;28;20088;-69
2021/12/14 04:17:56;;;;;;;4.18;1.55;;;32.50;67.60;;;;;;4967870;28;20018;-69
2021/12/14 04:20:33;;;;;;;6.20;1.33;;;32.50;67.70;;;;;;4966992;28;20055;-69
2021/12/14 04:23:04;;;;;;;7.85;1.83;;;32.90;68.00;;;;;;4966182;28;20035;-70
2021/12/14 04:25:42;;;;;;;5.95;1.45;;;32.50;67.20;;;;;;4967320;28;20053;-66
2021/12/14 04:28:13;;;;;;;7.03;1.40;;;32.50;66.20;;;;;;4970533;28;20023;-69
2021/12/14 04:30:41;;;;;;;6.60;1.75;;;32.70;66.00;;;;;;4970978;28;20034;-67
2021/12/14 04:33:13;;;;;;;19.27;2.85;;;32.70;65.10;;;;;;4970312;28;20026;-68
2021/12/14 04:35:41;;;;;;;;;;;32.40;66.60;;;;;;4971419;28;20027;-69
2021/12/14 04:38:17;;;;;;;6.28;1.27;;;32.70;68.10;;;;;;4970036;28;19918;-71
2021/12/14 04:52:01;;;;;;;11.52;1.65;;;33.90;63.40;;;;;;4965429;28;20509;-72
2021/12/14 04:54:40;;;;;;;12.80;2.25;;;33.20;64.50;;;;;;4964700;28;20627;-71
2021/12/14 04:57:36;;;;;;;14.00;1.60;;;32.70;65.70;;;;;;4965542;28;20019;-69
2021/12/14 05:00:19;;;;;;;9.93;1.58;;;33.10;66.30;;;;;;4968201;28;20041;-72
2021/12/14 05:02:47;;;;;;;7.80;1.30;;;33.80;64.30;;;;;;4965635;28;20030;-71
2021/12/14 05:05:34;;;;;;;3.55;1.20;;;34.00;63.00;;;;;;4966691;28;20053;-71
2021/12/14 05:10:44;;;;;;;24.15;2.42;;;33.70;63.40;;;;;;4968488;28;20035;-72
2021/12/14 05:13:11;;;;;;;8.70;2.33;;;33.80;62.90;;;;;;4968563;28;20038;-71
2021/12/14 05:15:41;;;;;;;5.65;1.25;;;33.60;63.10;;;;;;4968679;28;20034;-71
2021/12/14 05:18:14;;;;;;;5.50;1.20;;;33.20;64.30;;;;;;4968905;28;20109;-71
2021/12/14 05:20:48;;;;;;;9.13;1.45;;;33.00;64.70;;;;;;4967198;28;20161;-72
2021/12/14 05:23:28;;;;;;;5.68;1.70;;;32.90;64.10;;;;;;4968641;28;20063;-74
2021/12/14 05:25:57;;;;;;;7.60;1.23;;;33.10;63.90;;;;;;4969246;28;20034;-72
2021/12/14 05:28:25;;;;;;;6.45;1.23;;;33.30;64.20;;;;;;4968519;28;20023;-72
2021/12/14 05:30:57;;;;;;;13.77;1.88;;;33.50;62.50;;;;;;4967433;28;20037;-72
2021/12/14 05:33:29;;;;;;;;;;;33.50;62.10;;;;;;4969095;28;20507;-72
2021/12/14 05:36:01;;;;;;;8.50;1.75;;;33.40;62.70;;;;;;4968715;28;19910;-70
2021/12/14 05:44:06;;;;;;;7.90;1.65;;;31.00;67.10;;;;;;4968638;28;20162;-71
2021/12/14 05:46:35;;;;;;;6.32;1.40;;;30.50;69.00;;;;;;4968435;28;20447;-71
2021/12/14 05:49:08;;;;;;;7.93;1.90;;;30.20;68.80;;;;;;4968031;28;20045;-71
2021/12/14 05:51:36;;;;;;;7.53;1.50;;;30.00;69.80;;;;;;4967764;28;20114;-71
2021/12/14 05:54:05;;;;;;;7.53;1.92;;;29.70;70.60;;;;;;4967295;28;20050;-71
2021/12/14 05:56:33;;;;;;;14.93;2.10;;;29.30;71.40;;;;;;4967677;28;20034;-70
2021/12/14 05:59:02;;;;;;;7.50;1.75;;;29.00;72.20;;;;;;4967039;28;20097;-71
2021/12/14 06:01:33;;;;;;;7.95;1.67;;;28.80;72.50;;;;;;4963696;28;20049;-71
2021/12/14 06:04:05;;;;;;;8.30;1.30;;;28.70;73.30;;;;;;4967892;28;20031;-71
2021/12/14 06:06:46;;;;;;;7.88;1.73;;;28.80;73.00;;;;;;4967765;28;20257;-71
2021/12/14 06:09:20;;;;;;;9.23;1.58;;;28.80;72.80;;;;;;4967878;28;20602;-73
2021/12/14 06:11:49;;;;;;;9.27;1.95;;;28.70;73.10;;;;;;4968085;28;20034;-69
2021/12/14 06:14:25;;;;;;;8.35;1.70;;;28.40;74.50;;;;;;4967407;28;20487;-72
2021/12/14 06:16:56;;;;;;;10.68;1.40;;;28.20;74.10;;;;;;4967176;28;20082;-72
2021/12/14 06:19:36;;;;;;;11.02;2.08;;;28.20;75.60;;;;;;4967265;28;20043;-72
2021/12/14 06:22:18;;;;;;;9.10;1.30;;;28.20;74.50;;;;;;4983757;23;20101;-72
2021/12/14 06:24:52;;;;;;;15.77;2.53;;;28.30;73.80;;;;;;4986154;28;20065;-72
2021/12/14 06:27:22;;;;;;;10.38;1.80;;;27.90;74.80;;;;;;4973167;28;20039;-72
2021/12/14 06:29:59;;;;;;;6.55;1.20;;;27.90;75.40;;;;;;4967856;28;20061;-71
2021/12/14 06:32:33;;;;;;;8.23;1.80;;;28.00;73.50;;;;;;4968570;28;20826;-72
2021/12/14 06:35:30;;;;;;;11.85;2.10;;;28.10;74.20;;;;;;4968086;28;20027;-75
2021/12/14 06:38:28;;;;;;;8.80;1.80;;;28.10;75.10;;;;;;4961773;28;20042;-73
2021/12/14 06:41:13;;;;;;;8.52;1.98;;;27.60;76.10;;;;;;4967177;28;21089;-73
2021/12/14 06:43:52;;;;;;;9.13;2.08;;;27.60;76.50;;;;;;4967647;28;20042;-73
2021/12/14 06:46:40;;;;;;;7.40;1.25;;;27.70;76.50;;;;;;4967605;28;20105;-73
2021/12/14 06:49:15;;;;;;;6.57;2.42;;;27.50;76.90;;;;;;4966834;28;20041;-73
2021/12/14 06:51:46;;;;;;;7.75;1.65;;;27.50;77.40;;;;;;4966850;28;20070;-73
2021/12/14 06:54:23;;;;;;;10.40;1.83;;;27.30;77.30;;;;;;4967764;28;20042;-74
2021/12/14 06:56:57;;;;;;;9.77;2.83;;;27.30;77.20;;;;;;4968228;28;20257;-72
2021/12/14 06:59:26;;;;;;;8.38;2.63;;;27.20;77.30;;;;;;4966189;28;20026;-72
2021/12/14 07:02:03;;;;;;;9.70;1.63;;;27.20;77.40;;;;;;4967014;28;20022;-72
2021/12/14 07:04:33;;;;;;;10.15;1.60;;;27.10;77.60;;;;;;4967151;28;20030;-72
2021/12/14 07:07:07;;;;;;;6.68;1.88;;;26.90;78.50;;;;;;4965836;28;20487;-73
2021/12/14 07:09:44;;;;;;;11.55;1.67;;;26.70;78.70;;;;;;4962320;28;20460;-75
2021/12/14 07:12:16;;;;;;;6.60;1.38;;;26.60;79.20;;;;;;4966580;28;20014;-74
2021/12/14 07:14:46;;;;;;;9.10;1.50;;;26.80;78.50;;;;;;4968142;28;20034;-72
2021/12/14 07:17:19;;;;;;;6.63;1.45;;;26.90;78.60;;;;;;4968156;28;20086;-73
2021/12/14 07:19:52;;;;;;;9.40;1.92;;;27.00;78.50;;;;;;4966101;28;20035;-74
2021/12/14 07:22:30;;;;;;;8.18;1.55;;;26.90;78.10;;;;;;4965587;28;20102;-74
2021/12/14 07:25:09;;;;;;;7.50;1.55;;;26.50;79.30;;;;;;4965704;28;20124;-74
2021/12/14 07:27:43;;;;;;;11.02;1.83;;;26.10;80.80;;;;;;4966044;28;20464;-73
2021/12/14 07:30:25;;;;;;;9.95;2.25;;;25.80;81.10;;;;;;4965913;28;20031;-74
2021/12/14 07:33:16;;;;;;;8.27;2.70;;;25.50;82.20;;;;;;4965195;28;20038;-73
2021/12/14 07:35:58;;;;;;;12.95;2.45;;;25.10;83.20;;;;;;4967408;28;20038;-73
2021/12/14 07:38:32;;;;;;;9.43;2.47;;;25.20;83.90;;;;;;4967614;28;20034;-72
2021/12/14 07:41:02;;;;;;;8.45;2.58;;;25.30;83.20;;;;;;4967546;28;20029;-75
2021/12/14 07:43:35;;;;;;;7.40;3.10;;;25.10;83.20;;;;;;4967450;28;20379;-74
2021/12/14 07:46:18;;;;;;;9.70;2.58;;;25.00;83.10;;;;;;4967816;28;20109;-74
2021/12/14 07:48:49;;;;;;;;;;;24.80;84.20;;;;;;4968100;28;20691;-74
2021/12/14 07:51:19;;;;;;;13.20;2.40;;;24.70;85.40;;;;;;4967370;28;19957;-74
2021/12/14 07:53:55;;;;;;;13.52;3.28;;;24.80;85.50;;;;;;4967941;28;20057;-74
2021/12/14 07:56:31;;;;;;;10.40;2.40;;;24.80;85.80;;;;;;4967588;28;20039;-73
2021/12/14 07:58:59;;;;;;;7.90;1.98;;;24.80;85.10;;;;;;4973853;28;20023;-71
2021/12/14 08:01:27;;;;;;;10.82;1.50;;;24.90;84.10;;;;;;4972933;28;20030;-76
2021/12/14 08:04:12;;;;;;;10.18;2.00;;;24.80;85.00;;;;;;4973912;28;20026;-70
2021/12/14 08:06:56;;;;;;;7.15;3.15;;;24.70;85.80;;;;;;4975152;28;20035;-71
2021/12/14 08:09:44;;;;;;;11.05;2.78;;;24.60;86.50;;;;;;4975741;28;20117;-70
2021/12/14 08:12:12;;;;;;;8.07;1.92;;;24.60;86.70;;;;;;4975433;28;20031;-72
2021/12/14 08:14:40;;;;;;;7.13;1.98;;;24.60;87.30;;;;;;4975597;28;20391;-76
2021/12/14 08:17:09;;;;;;;9.90;1.75;;;24.50;86.90;;;;;;4975699;28;20368;-75
2021/12/14 08:19:44;;;;;;;10.57;2.05;;;24.30;87.60;;;;;;4975036;28;20022;-72
2021/12/14 08:22:25;;;;;;;9.20;1.98;;;24.20;88.30;;;;;;4975608;28;20126;-70
2021/12/14 08:24:52;;;;;;;11.80;2.63;;;24.20;88.60;;;;;;4976204;28;20023;-75
2021/12/14 08:27:27;;;;;;;13.48;4.75;;;24.20;88.90;;;;;;4969676;28;20749;-67
2021/12/14 08:29:59;;;;;;;7.78;2.35;;;23.90;89.80;;;;;;4968852;28;20031;-69
2021/12/14 08:32:33;;;;;;;12.00;2.10;;;23.80;90.20;;;;;;4970824;28;20038;-69
2021/12/14 08:35:04;;;;;;;9.95;2.42;;;23.70;90.40;;;;;;4970433;28;20039;-68
2021/12/14 08:37:37;;;;;;;8.43;2.22;;;23.70;90.40;;;;;;4969077;28;20111;-74
2021/12/14 08:40:16;;;;;;;11.43;2.47;;;23.60;90.70;;;;;;4970271;28;20065;-75
2021/12/14 08:43:23;;;;;;;8.10;2.30;;;23.60;90.90;;;;;;4970260;28;20022;-69
2021/12/14 08:46:00;;;;;;;11.23;3.22;;;23.40;91.10;;;;;;4970224;28;20045;-69
2021/12/14 08:48:39;;;;;;;11.80;2.35;;;23.30;91.30;;;;;;4969877;28;20445;-67
2021/12/14 08:51:14;;;;;;;12.45;2.00;;;23.20;91.60;;;;;;4970108;28;20027;-69
2021/12/14 08:53:47;;;;;;;10.55;2.20;;;23.10;91.80;;;;;;4969919;28;20039;-72
2021/12/14 08:56:16;;;;;;;8.90;2.25;;;23.10;92.00;;;;;;4970524;28;20454;-71
2021/12/14 08:58:44;;;;;;;11.95;2.15;;;23.10;92.10;;;;;;4970330;28;20565;-70
2021/12/14 09:01:17;;;;;;;7.10;2.10;;;23.10;92.20;;;;;;4970537;28;20110;-70
2021/12/14 09:03:54;;;;;;;11.50;2.15;;;23.00;92.10;;;;;;4969880;28;20383;-72
2021/12/14 09:06:29;;;;;;;11.30;2.75;;;22.90;92.40;;;;;;4969579;28;20026;-70
2021/12/14 09:09:00;;;;;;;9.65;2.92;;;22.80;92.80;;;;;;4969642;28;20097;-71
2021/12/14 09:11:31;;;;;;;9.93;3.78;;;22.60;93.20;;;;;;4969799;28;20034;-71
2021/12/14 09:13:59;;;;;;;9.38;3.65;;;22.50;93.50;;;;;;4968449;28;20414;-70
2021/12/14 09:16:29;;;;;;;11.43;2.65;;;22.40;93.90;;;;;;4969742;28;20050;-72
2021/12/14 09:19:04;;;;;;;12.85;2.80;;;22.30;94.00;;;;;;4969219;28;20094;-71
2021/12/14 09:21:35;;;;;;;8.90;2.25;;;22.20;94.30;;;;;;4969865;28;20023;-71
2021/12/14 09:24:07;;;;;;;10.90;2.47;;;22.10;94.60;;;;;;4969813;28;20518;-71
2021/12/14 09:26:38;;;;;;;10.48;2.60;;;22.00;95.00;;;;;;4969844;28;20029;-71
2021/12/14 09:29:10;;;;;;;12.57;2.33;;;21.90;95.20;;;;;;4969064;28;20049;-73
2021/12/14 09:31:39;;;;;;;12.98;3.67;;;21.90;95.70;;;;;;4968340;28;20027;-72
2021/12/14 09:34:09;;;;;;;11.93;2.75;;;21.90;95.80;;;;;;4969167;28;20081;-71
2021/12/14 09:36:37;;;;;;;16.75;3.78;;;21.80;96.00;;;;;;4969807;28;20114;-71
2021/12/14 09:39:18;;;;;;;13.95;4.90;;;21.80;96.00;;;;;;4968702;28;20119;-71
2021/12/14 09:41:50;;;;;;;17.45;4.90;;;21.70;96.40;;;;;;4968914;28;20395;-71
2021/12/14 09:44:17;;;;;;;13.82;2.90;;;21.60;96.80;;;;;;4962649;28;20133;-72
2021/12/14 09:46:45;;;;;;;13.57;2.17;;;21.50;97.30;;;;;;4966203;28;20395;-71
2021/12/14 09:49:13;;;;;;;9.38;2.50;;;21.40;97.60;;;;;;4966240;28;20037;-70
2021/12/14 09:51:50;;;;;;;12.82;3.42;;;21.40;98.00;;;;;;4964328;28;20110;-73
2021/12/14 09:54:24;;;;;;;10.82;3.05;;;21.50;98.40;;;;;;4962783;28;20447;-71
2021/12/14 09:57:00;;;;;;;10.73;2.95;;;21.50;98.20;;;;;;4964269;28;20030;-72
2021/12/14 09:59:28;;;;;;;10.30;2.47;;;21.40;98.50;;;;;;4963856;28;20061;-71
2021/12/14 10:01:57;;;;;;;10.70;2.15;;;21.40;98.60;;;;;;4965507;28;20158;-71
2021/12/14 10:04:34;;;;;;;11.77;2.90;;;21.50;98.80;;;;;;4968974;28;20038;-72
2021/12/14 10:07:04;;;;;;;8.77;1.88;;;21.50;99.00;;;;;;4968742;28;20035;-72
2021/12/14 10:09:42;;;;;;;11.95;3.42;;;21.60;98.90;;;;;;4966973;28;20037;-73
2021/12/14 10:13:03;;;;;;;12.77;2.97;;;21.60;98.70;;;;;;4964281;28;20042;-73
2021/12/14 10:15:27;;;;;;;12.07;2.85;;;21.50;99.10;;;;;;4959379;28;20700;-73
2021/12/14 10:17:56;;;;;;;6.85;2.00;;;21.50;99.20;;;;;;4968681;28;20031;-73
2021/12/14 10:20:37;;;;;;;8.35;3.05;;;21.40;99.40;;;;;;4968712;28;20030;-73
2021/12/14 10:23:06;;;;;;;7.53;2.80;;;21.40;99.70;;;;;;4968701;28;20471;-73
2021/12/14 10:25:34;;;;;;;11.70;3.45;;;21.40;99.90;;;;;;4967715;28;20018;-73
2021/12/14 10:28:01;;;;;;;9.45;3.00;;;21.40;99.90;;;;;;4967973;28;20507;-73
2021/12/14 10:30:35;;;;;;;12.30;2.80;;;21.40;99.90;;;;;;4967809;28;20073;-73
2021/12/14 10:33:03;;;;;;;10.07;2.38;;;21.40;99.90;;;;;;4968250;28;20042;-73
2021/12/14 10:35:39;;;;;;;11.25;1.83;;;21.40;99.90;;;;;;4968560;28;20390;-72
2021/12/14 10:38:20;;;;;;;7.00;2.00;;;21.40;99.90;;;;;;4968579;28;20031;-73
2021/12/14 10:43:41;;;;;;;8.45;2.33;;;21.40;99.90;;;;;;4968850;28;20529;-72
2021/12/14 10:46:29;;;;;;;10.73;2.90;;;21.20;99.90;;;;;;4968330;28;20050;-73
2021/12/14 10:48:57;;;;;;;8.43;2.20;;;21.10;99.90;;;;;;4968659;28;20768;-73
2021/12/14 10:51:33;;;;;;;11.75;3.53;;;21.10;99.90;;;;;;4968210;28;20038;-72
2021/12/14 10:54:03;;;;;;;6.35;1.83;;;21.10;99.90;;;;;;4967851;28;20054;-74
2021/12/14 10:56:54;;;;;;;10.63;2.72;;;21.10;99.90;;;;;;4968007;28;20125;-73
2021/12/14 10:59:24;;;;;;;14.68;2.83;;;21.00;99.90;;;;;;4967907;28;20499;-73
2021/12/14 11:01:54;;;;;;;11.80;2.50;;;21.00;99.90;;;;;;4967987;28;20030;-72
2021/12/14 11:04:40;;;;;;;6.65;2.40;;;21.10;99.90;;;;;;4968124;28;20034;-74
2021/12/14 11:07:10;;;;;;;14.20;3.17;;;21.00;99.90;;;;;;4967843;28;20533;-73
2021/12/14 11:09:42;;;;;;;12.27;3.33;;;20.90;99.90;;;;;;4967608;28;20033;-73
2021/12/14 11:12:20;;;;;;;7.47;1.95;;;20.90;99.90;;;;;;4968181;28;20019;-73
2021/12/14 11:14:55;;;;;;;10.38;2.65;;;20.90;99.90;;;;;;4967818;28;20126;-73
2021/12/14 11:20:17;;;;;;;9.75;1.85;;;20.80;99.90;;;;;;4968091;28;20049;-73
2021/12/14 11:22:52;;;;;;;9.80;2.17;;;20.80;99.90;;;;;;4967263;28;20514;-72
2021/12/14 11:25:23;;;;;;;10.43;2.05;;;20.80;99.90;;;;;;4967385;28;20073;-73
2021/12/14 11:28:00;;;;;;;13.30;2.15;;;20.90;99.90;;;;;;4967619;28;20034;-73
2021/12/14 11:30:38;;;;;;;12.30;2.40;;;20.90;99.90;;;;;;4968241;28;20023;-72
2021/12/14 11:33:26;;;;;;;9.68;2.20;;;20.80;99.90;;;;;;4967721;28;20093;-73
2021/12/14 11:35:59;;;;;;;10.10;2.40;;;20.80;99.90;;;;;;4971408;28;20038;-72
2021/12/14 11:38:29;;;;;;;6.57;2.33;;;20.80;99.90;;;;;;4974373;28;20027;-72
2021/12/14 11:41:00;;;;;;;11.98;2.85;;;20.80;99.90;;;;;;4974375;28;20030;-72
2021/12/14 11:43:30;;;;;;;8.23;2.42;;;20.70;99.90;;;;;;4974090;28;20035;-72
2021/12/14 11:46:05;;;;;;;15.35;3.13;;;20.70;99.90;;;;;;4974103;28;20052;-72
2021/12/14 11:48:36;;;;;;;8.48;1.85;;;20.60;99.90;;;;;;4974161;28;20034;-72
2021/12/14 11:51:10;;;;;;;11.82;2.28;;;20.60;99.90;;;;;;4972550;28;20041;-72
2021/12/14 11:53:38;;;;;;;8.18;2.08;;;20.60;99.90;;;;;;4974404;28;20124;-72
2021/12/14 11:56:14;;;;;;;13.23;3.95;;;20.50;99.90;;;;;;4974423;28;20156;-72
2021/12/14 11:58:43;;;;;;;9.68;2.83;;;20.60;99.90;;;;;;4973740;28;20378;-72
2021/12/14 12:01:35;;;;;;;9.10;2.65;;;20.50;99.90;;;;;;4973842;28;20386;-72
2021/12/14 12:04:09;;;;;;;9.02;2.47;;;20.50;99.90;;;;;;4973990;28;20037;-73
2021/12/14 12:09:32;;;;;;;14.48;3.75;;;20.40;99.90;;;;;;4974066;28;20106;-71
2021/12/14 12:12:05;;;;;;;9.35;2.40;;;20.40;99.90;;;;;;4973654;28;20467;-71
2021/12/14 12:14:44;;;;;;;10.68;2.95;;;20.30;99.90;;;;;;4973671;28;20422;-72
2021/12/14 12:17:35;;;;;;;12.50;3.47;;;20.30;99.90;;;;;;4973599;28;20027;-72
2021/12/14 12:20:13;;;;;;;7.15;2.40;;;20.20;99.90;;;;;;4973586;28;20034;-72
2021/12/14 12:22:51;;;;;;;11.38;2.47;;;20.20;99.90;;;;;;4973688;28;20051;-71
2021/12/14 12:25:31;;;;;;;10.27;2.75;;;20.20;99.90;;;;;;4973401;28;20046;-72
2021/12/14 12:28:04;;;;;;;14.65;2.50;;;20.20;99.90;;;;;;4973508;28;20034;-71
2021/12/14 12:30:39;;;;;;;8.40;2.40;;;20.10;99.90;;;;;;4973689;28;20030;-72
2021/12/14 12:33:22;;;;;;;10.20;2.67;;;20.00;99.90;;;;;;4973680;28;20026;-72
2021/12/14 12:36:04;;;;;;;11.77;2.55;;;20.00;99.90;;;;;;4973206;28;20030;-71
2021/12/14 12:38:46;;;;;;;10.60;3.83;;;20.00;99.90;;;;;;4971949;28;20498;-71
2021/12/14 12:41:40;;;;;;;12.63;2.80;;;19.90;99.90;;;;;;4973681;28;20077;-72
2021/12/14 12:44:23;;;;;;;10.00;3.00;;;19.90;99.90;;;;;;4973622;28;20832;-72
2021/12/14 12:47:01;;;;;;;10.77;2.97;;;20.00;99.90;;;;;;4971862;28;20062;-71
2021/12/14 12:49:33;;;;;;;10.13;2.92;;;19.90;99.90;;;;;;4970974;28;20105;-72
2021/12/14 12:52:07;;;;;;;10.73;3.42;;;19.90;99.90;;;;;;4970616;28;20027;-72
2021/12/14 12:54:43;;;;;;;8.88;2.45;;;19.90;99.90;;;;;;4970171;28;20049;-71
2021/12/14 12:57:22;;;;;;;11.25;4.18;;;19.90;99.90;;;;;;4970505;28;20110;-71
2021/12/14 12:59:59;;;;;;;9.90;3.28;;;19.90;99.90;;;;;;4970370;28;20042;-71
2021/12/14 13:02:36;;;;;;;11.77;2.88;;;19.80;99.90;;;;;;4970325;28;20065;-71
2021/12/14 13:05:22;;;;;;;9.25;2.60;;;19.80;99.90;;;;;;4968648;28;20038;-71
2021/12/14 13:07:56;;;;;;;12.75;3.53;;;19.90;99.90;;;;;;4969660;28;20035;-72
2021/12/14 13:10:32;;;;;;;10.73;2.60;;;19.80;99.90;;;;;;4969879;28;20030;-72
2021/12/14 13:13:20;;;;;;;10.27;3.65;;;19.80;99.90;;;;;;4973702;28;20038;-71
2021/12/14 13:16:06;;;;;;;13.38;3.05;;;19.80;99.90;;;;;;4974604;28;20176;-71
2021/12/14 13:19:09;;;;;;;10.82;2.83;;;19.70;99.90;;;;;;4975211;28;20522;-71
2021/12/14 13:21:45;;;;;;;11.18;2.40;;;19.70;99.90;;;;;;4964629;28;20384;-72
2021/12/14 13:24:19;;;;;;;9.30;2.75;;;19.60;99.90;;;;;;4975010;28;20046;-71
2021/12/14 13:27:06;;;;;;;12.40;3.00;;;19.60;99.90;;;;;;4974126;28;20025;-71
2021/12/14 13:29:56;;;;;;;16.50;4.35;;;19.60;99.90;;;;;;4974782;28;20022;-72
2021/12/14 13:32:30;;;;;;;12.27;3.30;;;19.60;99.90;;;;;;4968352;28;20383;-71
2021/12/14 13:35:15;;;;;;;12.18;3.83;;;19.60;99.90;;;;;;4974646;28;20035;-72
2021/12/14 13:37:53;;;;;;;16.88;4.55;;;19.60;99.90;;;;;;4974407;28;20019;-71
2021/12/14 13:40:24;;;;;;;7.53;2.58;;;19.60;99.90;;;;;;4974757;28;20049;-72
2021/12/14 13:42:51;;;;;;;9.05;3.28;;;19.60;99.90;;;;;;4974886;28;20042;-72
2021/12/14 13:45:25;;;;;;;11.15;3.42;;;19.60;99.90;;;;;;4974742;28;20038;-72
2021/12/14 13:47:54;;;;;;;10.95;3.97;;;19.60;99.90;;;;;;4974553;28;20015;-72
2021/12/14 13:50:30;;;;;;;12.93;4.15;;;19.50;99.90;;;;;;4974533;28;20034;-71
2021/12/14 13:52:59;;;;;;;17.83;4.80;;;19.50;99.90;;;;;;4974496;28;20029;-71
2021/12/14 13:55:37;;;;;;;9.85;2.67;;;19.50;99.90;;;;;;4974749;28;20151;-72